createdAt,value
2017-10-07T00:00:35.657Z,75
2017-10-07T00:25:00.277Z,74
2017-10-07T00:37:00.488Z,74
2017-10-07T00:49:00.120Z,75
2017-10-07T01:01:04.064Z,74
2017-10-07T01:13:07.375Z,72
2017-10-07T01:25:21.000Z,71
2017-10-07T01:37:17.060Z,74
2017-10-07T01:49:13.344Z,72
2017-10-07T02:01:09.847Z,74
2017-10-07T02:13:06.262Z,73
2017-10-07T02:25:02.347Z,73
2017-10-07T02:36:58.946Z,73
2017-10-07T02:48:55.048Z,73
2017-10-07T03:00:51.231Z,73
2017-10-07T03:12:47.023Z,73
2017-10-07T03:24:43.329Z,72
2017-10-07T03:36:39.606Z,73
2017-10-07T03:48:35.665Z,71
2017-10-07T04:00:33.029Z,73
2017-10-07T04:12:29.200Z,73
2017-10-07T04:24:25.310Z,73
2017-10-07T04:36:21.363Z,73
2017-10-07T04:48:17.527Z,72
2017-10-07T05:00:14.056Z,72
2017-10-07T05:12:10.363Z,72
2017-10-07T05:24:06.451Z,70
2017-10-07T05:36:02.708Z,72
2017-10-07T05:47:59.208Z,72
2017-10-07T05:59:56.242Z,72
2017-10-07T06:11:54.084Z,68
2017-10-07T06:23:51.089Z,72
2017-10-07T06:35:48.300Z,71
2017-10-07T06:47:45.649Z,71
2017-10-07T06:59:41.823Z,68
2017-10-07T07:11:39.081Z,70
2017-10-07T07:23:38.169Z,71
2017-10-07T07:35:35.425Z,71
2017-10-07T07:47:32.745Z,70
2017-10-07T07:59:30.168Z,71
2017-10-07T08:11:26.790Z,70
2017-10-07T08:23:25.483Z,70
2017-10-07T08:35:25.743Z,70
2017-10-07T08:47:24.607Z,70
2017-10-07T08:59:22.982Z,70
2017-10-07T09:11:22.444Z,68
2017-10-07T09:23:23.914Z,70
2017-10-07T09:35:43.666Z,70
2017-10-07T09:47:45.969Z,69
2017-10-07T09:59:46.087Z,69
2017-10-07T10:11:44.745Z,69
2017-10-07T10:23:42.724Z,68
2017-10-07T10:35:41.389Z,68
2017-10-07T10:47:38.942Z,70
2017-10-07T10:59:40.385Z,69
2017-10-07T11:11:39.487Z,70
2017-10-07T11:23:39.445Z,69
2017-10-07T11:35:41.828Z,67
2017-10-07T11:47:42.168Z,69
2017-10-07T11:59:40.902Z,69
2017-10-07T12:11:39.488Z,69
2017-10-07T12:23:37.845Z,69
2017-10-07T12:35:38.525Z,66
2017-10-07T12:47:38.723Z,69
2017-10-07T12:59:37.966Z,68
2017-10-07T13:11:39.756Z,68
2017-10-07T13:23:38.572Z,66
2017-10-07T13:35:37.634Z,67
2017-10-07T13:47:40.021Z,68
2017-10-07T13:59:42.545Z,68
2017-10-07T14:11:52.768Z,66
2017-10-07T14:23:55.767Z,68
2017-10-07T14:35:55.389Z,68
2017-10-07T14:47:58.351Z,66
2017-10-07T14:59:59.587Z,68
2017-10-07T15:12:02.786Z,66
2017-10-07T15:24:13.914Z,66
2017-10-07T15:36:18.621Z,67
2017-10-07T15:48:47.502Z,67
2017-10-07T16:12:51.189Z,67
2017-10-07T16:25:14.542Z,65
2017-10-07T16:37:32.193Z,66
2017-10-07T17:02:17.411Z,65
2017-10-07T18:02:58.699Z,62
2017-10-07T18:50:47.308Z,66
2017-10-07T19:02:48.227Z,66
2017-10-07T19:14:47.768Z,66
2017-10-07T19:26:46.644Z,66
2017-10-07T19:38:46.907Z,66
2017-10-07T19:50:49.711Z,64
2017-10-07T20:02:48.989Z,66
2017-10-07T20:14:46.167Z,64
2017-10-07T20:26:44.648Z,64
2017-10-07T20:38:42.623Z,66
2017-10-07T20:50:38.423Z,65
2017-10-07T21:02:35.633Z,66
2017-10-07T21:14:33.304Z,63
2017-10-07T21:26:32.624Z,65
2017-10-07T21:38:31.369Z,65
2017-10-07T21:50:29.610Z,66
2017-10-07T22:02:27.182Z,66
2017-10-07T22:14:24.864Z,65
2017-10-07T22:26:23.844Z,65
2017-10-07T22:38:21.890Z,65
2017-10-07T22:50:18.550Z,64
2017-10-07T23:02:15.524Z,64
2017-10-07T23:14:12.030Z,65
2017-10-07T23:26:08.702Z,64
2017-10-07T23:38:03.830Z,63
2017-10-07T23:50:00.588Z,63
